Time;durP1;ratioP1;P1;durP2;ratioP2;P2;SDS_P1;SDS_P2;PMS_P1;PMS_P2;Temp;Humidity;BMP_temperature;BMP_pressure;BME280_temperature;BME280_humidity;BME280_pressure;Samples;Min_cycle;Max_cycle;Signal;HPM_P1;HPM_P2
2022/02/05 00:00:48;;;;;;;12.90;9.00;;;;;;;;;;775093;177;919055;-62
2022/02/05 00:03:22;;;;;;;17.90;11.20;;;;;;;;;;781293;177;1018076;-62
2022/02/05 00:05:51;;;;;;;14.77;9.77;;;;;;;;;;767767;180;915671;-63
2022/02/05 00:08:25;;;;;;;16.00;10.30;;;;;;;;;;769652;178;926934;-62
2022/02/05 00:11:07;;;;;;;17.17;12.07;;;;;;;;;;762121;181;919612;-63
2022/02/05 00:13:29;;;;;;;15.80;11.43;;;;;;;;;;775526;180;919599;-65
2022/02/05 00:15:46;;;;;;;16.20;10.70;;;;;;;;;;771833;180;919128;-64
2022/02/05 00:41:30;;;;;;;15.77;9.50;;;;;;;;;;757710;183;918557;-63
2022/02/05 00:43:57;;;;;;;25.90;12.40;;;;;;;;;;769777;181;919819;-63
2022/02/05 00:46:21;;;;;;;16.27;11.53;;;;;;;;;;769851;179;919020;-63
2022/02/05 00:48:46;;;;;;;17.33;12.77;;;;;;;;;;754229;184;919909;-63
2022/02/05 00:51:17;;;;;;;18.48;12.35;;;;;;;;;;771613;180;919311;-64
2022/02/05 00:53:40;;;;;;;25.77;12.70;;;;;;;;;;773291;180;918502;-61
2022/02/05 00:56:13;;;;;;;20.80;13.87;;;;;;;;;;774458;179;918900;-63
2022/02/05 00:58:32;;;;;;;22.07;13.57;;;;;;;;;;773043;179;919860;-63
2022/02/05 01:00:57;;;;;;;17.75;13.70;;;;;;;;;;780338;178;918970;-64
2022/02/05 01:03:23;;;;;;;20.40;12.07;;;;;;;;;;774268;178;1020004;-64
2022/02/05 01:05:49;;;;;;;19.40;13.50;;;;;;;;;;775067;177;921582;-63
2022/02/05 01:08:16;;;;;;;16.90;12.00;;;;;;;;;;778924;180;918729;-64
2022/02/05 01:10:41;;;;;;;12.97;10.03;;;;;;;;;;770390;181;917692;-63
2022/02/05 01:13:10;;;;;;;15.33;10.70;;;;;;;;;;774269;180;918687;-61
2022/02/05 01:15:39;;;;;;;17.07;11.60;;;;;;;;;;771818;177;918471;-63
2022/02/05 01:18:02;;;;;;;15.77;9.50;;;;;;;;;;772410;178;918219;-62
2022/02/05 01:20:58;;;;;;;11.83;8.33;;;;;;;;;;775708;179;919937;-63
2022/02/05 01:23:02;;;;;;;19.57;10.43;;;;;;;;;;767077;177;918631;-63
2022/02/05 01:25:29;;;;;;;16.05;10.88;;;;;;;;;;770069;182;917770;-64
2022/02/05 01:27:56;;;;;;;15.27;10.80;;;;;;;;;;762315;182;1008734;-63
2022/02/05 01:30:24;;;;;;;17.00;10.67;;;;;;;;;;770357;178;919283;-63
2022/02/05 01:32:55;;;;;;;18.70;11.20;;;;;;;;;;773663;179;915896;-64
2022/02/05 01:35:19;;;;;;;17.30;11.53;;;;;;;;;;772254;181;916051;-64
2022/02/05 01:50:35;;;;;;;22.97;11.10;;;;;;;;;;774094;177;919695;-64
2022/02/05 01:55:37;;;;;;;12.37;7.23;;;;;;;;;;772204;179;927269;-63
2022/02/05 01:58:11;;;;;;;13.63;8.93;;;;;;;;;;772672;178;918703;-62
2022/02/05 02:05:34;;;;;;;10.83;7.33;;;;;;;;;;772917;177;919496;-65
2022/02/05 02:10:54;;;;;;;13.93;8.70;;;;;;;;;;767255;181;1021888;-63
2022/02/05 02:13:31;;;;;;;17.13;9.20;;;;;;;;;;771707;180;918647;-63
2022/02/05 02:15:49;;;;;;;12.73;8.20;;;;;;;;;;772798;178;918909;-63
2022/02/05 02:18:22;;;;;;;16.80;9.73;;;;;;;;;;774435;179;919475;-63
2022/02/05 02:20:57;;;;;;;13.38;8.75;;;;;;;;;;766151;179;919514;-64
2022/02/05 02:28:47;;;;;;;16.17;10.77;;;;;;;;;;771709;177;943445;-63
2022/02/05 02:31:09;;;;;;;15.25;10.48;;;;;;;;;;778544;178;919508;-64
2022/02/05 02:33:34;;;;;;;17.60;10.73;;;;;;;;;;759210;184;918927;-63
2022/02/05 02:35:56;;;;;;;16.83;11.13;;;;;;;;;;756387;182;919138;-63
2022/02/05 02:38:26;;;;;;;15.20;9.40;;;;;;;;;;776097;181;919357;-64
2022/02/05 02:41:00;;;;;;;18.57;11.07;;;;;;;;;;774253;181;919428;-63
2022/02/05 02:43:22;;;;;;;18.20;10.20;;;;;;;;;;771977;178;919226;-64
2022/02/05 02:45:45;;;;;;;17.10;10.57;;;;;;;;;;770374;181;918300;-64
2022/02/05 02:48:08;;;;;;;19.93;11.40;;;;;;;;;;768699;180;920182;-64
2022/02/05 02:56:26;;;;;;;18.27;10.40;;;;;;;;;;759047;184;921833;-64
2022/02/05 02:58:19;;;;;;;14.50;8.90;;;;;;;;;;772268;179;918237;-64
2022/02/05 03:00:41;;;;;;;12.00;8.60;;;;;;;;;;771664;180;918476;-63
2022/02/05 03:03:07;;;;;;;12.57;8.13;;;;;;;;;;773754;180;919390;-63
2022/02/05 03:05:34;;;;;;;16.20;8.50;;;;;;;;;;770450;179;919059;-63
2022/02/05 03:08:00;;;;;;;11.53;7.43;;;;;;;;;;769129;181;918926;-63
2022/02/05 03:10:26;;;;;;;12.30;8.50;;;;;;;;;;771314;180;919121;-64
2022/02/05 03:12:52;;;;;;;10.80;7.10;;;;;;;;;;774339;180;919557;-64
2022/02/05 03:15:20;;;;;;;17.03;8.93;;;;;;;;;;780841;179;921335;-63
2022/02/05 03:17:54;;;;;;;18.97;9.43;;;;;;;;;;766675;177;919164;-64
2022/02/05 03:20:10;;;;;;;11.87;7.97;;;;;;;;;;766649;181;1021478;-64
2022/02/05 03:22:36;;;;;;;11.63;8.23;;;;;;;;;;776587;181;918919;-64
2022/02/05 03:25:01;;;;;;;14.05;7.95;;;;;;;;;;769454;177;920004;-64
2022/02/05 03:27:27;;;;;;;10.37;7.73;;;;;;;;;;770528;180;1024526;-64
2022/02/05 03:29:53;;;;;;;12.13;8.10;;;;;;;;;;775038;177;918489;-64
2022/02/05 03:32:20;;;;;;;13.20;8.07;;;;;;;;;;763715;184;915705;-64
2022/02/05 03:34:45;;;;;;;16.43;8.80;;;;;;;;;;758795;180;916605;-64
2022/02/05 03:37:11;;;;;;;15.63;10.90;;;;;;;;;;772910;177;920018;-64
2022/02/05 03:39:37;;;;;;;12.90;8.83;;;;;;;;;;778555;180;915868;-64
2022/02/05 03:42:03;;;;;;;15.37;9.03;;;;;;;;;;773525;177;918912;-64
2022/02/05 03:44:29;;;;;;;15.37;9.67;;;;;;;;;;775465;180;919233;-65
2022/02/05 03:46:55;;;;;;;14.85;9.35;;;;;;;;;;776529;180;920184;-64
2022/02/05 03:49:21;;;;;;;13.27;7.73;;;;;;;;;;769418;180;919844;-64
2022/02/05 03:51:46;;;;;;;7.77;4.80;;;;;;;;;;769239;180;919376;-63
2022/02/05 03:54:12;;;;;;;12.52;8.90;;;;;;;;;;772858;178;918745;-63
2022/02/05 03:56:38;;;;;;;10.93;5.73;;;;;;;;;;769612;178;918995;-64
2022/02/05 03:59:04;;;;;;;10.20;7.07;;;;;;;;;;760073;181;919074;-64
2022/02/05 04:01:30;;;;;;;9.87;6.93;;;;;;;;;;773465;178;920101;-65
2022/02/05 04:03:56;;;;;;;8.23;5.77;;;;;;;;;;776164;180;1018210;-64
2022/02/05 04:06:21;;;;;;;7.20;5.55;;;;;;;;;;773082;178;918555;-64
2022/02/05 04:08:49;;;;;;;11.93;6.03;;;;;;;;;;773066;178;918264;-63
2022/02/05 04:11:30;;;;;;;5.53;4.83;;;;;;;;;;781703;180;915657;-63
2022/02/05 04:18:44;;;;;;;3.47;1.93;;;;;;;;;;772340;180;918916;-64
2022/02/05 04:21:10;;;;;;;9.83;2.40;;;;;;;;;;781357;178;897505;-64
2022/02/05 04:23:36;;;;;;;3.27;2.00;;;;;;;;;;771389;180;918901;-63
2022/02/05 04:26:02;;;;;;;5.27;2.17;;;;;;;;;;762165;179;919518;-63
2022/02/05 04:28:28;;;;;;;4.97;1.95;;;;;;;;;;777468;178;919003;-64
2022/02/05 04:30:53;;;;;;;2.63;1.47;;;;;;;;;;776386;180;919793;-64
2022/02/05 04:33:19;;;;;;;2.00;1.23;;;;;;;;;;772324;178;921187;-65
2022/02/05 04:35:45;;;;;;;2.80;1.20;;;;;;;;;;771130;180;918911;-65
2022/02/05 04:38:11;;;;;;;2.80;1.40;;;;;;;;;;772491;179;918939;-63
2022/02/05 04:40:44;;;;;;;2.10;1.27;;;;;;;;;;773460;178;919916;-65
2022/02/05 04:51:29;;;;;;;2.40;1.30;;;;;;;;;;781101;180;919582;-65
2022/02/05 04:54:14;;;;;;;2.30;1.27;;;;;;;;;;775669;180;918379;-65
2022/02/05 04:59:09;;;;;;;3.30;1.30;;;;;;;;;;770088;178;1021396;-64
2022/02/05 05:01:37;;;;;;;1.83;1.10;;;;;;;;;;765701;178;918591;-65
2022/02/05 05:04:07;;;;;;;1.70;1.00;;;;;;;;;;774583;179;919290;-63
2022/02/05 05:06:44;;;;;;;2.30;1.30;;;;;;;;;;777159;177;630515;-65
2022/02/05 05:19:53;;;;;;;4.67;1.30;;;;;;;;;;773542;180;916424;-65
2022/02/05 05:22:03;;;;;;;3.77;1.30;;;;;;;;;;777671;180;636943;-65
2022/02/05 05:24:29;;;;;;;3.70;1.40;;;;;;;;;;769137;177;925025;-64
2022/02/05 05:26:55;;;;;;;2.00;1.10;;;;;;;;;;760309;181;919985;-65
2022/02/05 05:29:21;;;;;;;2.47;1.10;;;;;;;;;;770339;180;920245;-64
2022/02/05 05:31:46;;;;;;;1.80;1.05;;;;;;;;;;776700;179;920194;-65
2022/02/05 05:34:12;;;;;;;3.10;1.03;;;;;;;;;;780597;180;920335;-65
2022/02/05 05:36:38;;;;;;;2.33;1.08;;;;;;;;;;772114;177;926274;-65
2022/02/05 05:39:04;;;;;;;1.83;1.00;;;;;;;;;;774109;179;918754;-63
2022/02/05 05:41:31;;;;;;;1.80;0.93;;;;;;;;;;776074;178;919306;-63
2022/02/05 05:44:13;;;;;;;1.70;0.90;;;;;;;;;;766937;182;919296;-65
2022/02/05 05:46:34;;;;;;;3.00;1.20;;;;;;;;;;770815;180;919722;-65
2022/02/05 05:51:31;;;;;;;1.70;0.90;;;;;;;;;;767230;180;919316;-64
2022/02/05 05:53:57;;;;;;;2.37;1.03;;;;;;;;;;769814;180;919470;-65
2022/02/05 05:56:24;;;;;;;2.83;1.00;;;;;;;;;;776055;177;915642;-65
2022/02/05 05:58:49;;;;;;;2.77;1.13;;;;;;;;;;772728;179;913821;-66
2022/02/05 06:01:15;;;;;;;2.00;1.10;;;;;;;;;;776690;180;919721;-65
2022/02/05 06:03:40;;;;;;;1.70;1.00;;;;;;;;;;774070;178;919473;-65
2022/02/05 06:06:06;;;;;;;2.10;1.17;;;;;;;;;;773660;180;919766;-66
2022/02/05 06:08:32;;;;;;;2.67;1.53;;;;;;;;;;775516;178;918132;-63
2022/02/05 06:10:58;;;;;;;2.93;1.30;;;;;;;;;;772531;180;918247;-64
2022/02/05 06:13:24;;;;;;;3.17;1.20;;;;;;;;;;772448;180;925197;-64
2022/02/05 06:15:52;;;;;;;1.70;0.90;;;;;;;;;;765529;178;920227;-64
2022/02/05 06:18:16;;;;;;;2.40;1.30;;;;;;;;;;770309;181;919927;-65
2022/02/05 06:20:41;;;;;;;2.57;1.03;;;;;;;;;;777238;178;918899;-63
2022/02/05 06:23:07;;;;;;;1.90;1.07;;;;;;;;;;777448;178;917440;-62
2022/02/05 06:25:33;;;;;;;2.20;1.30;;;;;;;;;;767601;180;919450;-64
2022/02/05 06:27:59;;;;;;;2.40;1.40;;;;;;;;;;776399;180;918743;-65
2022/02/05 06:30:25;;;;;;;2.90;1.17;;;;;;;;;;772005;180;920337;-65
2022/02/05 06:32:51;;;;;;;4.90;1.40;;;;;;;;;;779704;180;919893;-62
2022/02/05 06:35:17;;;;;;;2.10;1.10;;;;;;;;;;773862;180;918383;-65
2022/02/05 06:37:43;;;;;;;2.20;1.20;;;;;;;;;;769175;181;919273;-65
2022/02/05 06:40:09;;;;;;;2.20;1.40;;;;;;;;;;765229;182;919783;-63
2022/02/05 06:42:35;;;;;;;3.03;1.47;;;;;;;;;;772455;182;919654;-64
2022/02/05 06:45:01;;;;;;;5.50;1.27;;;;;;;;;;770993;179;919421;-64
2022/02/05 06:47:26;;;;;;;2.08;1.00;;;;;;;;;;776096;177;919124;-65
2022/02/05 06:49:52;;;;;;;2.90;1.30;;;;;;;;;;781607;180;919795;-64
2022/02/05 06:52:18;;;;;;;2.43;1.20;;;;;;;;;;777805;180;919445;-64
2022/02/05 06:54:44;;;;;;;3.50;1.10;;;;;;;;;;774563;179;919291;-65
2022/02/05 06:57:10;;;;;;;4.10;1.93;;;;;;;;;;780720;178;919338;-65
2022/02/05 06:59:36;;;;;;;4.80;1.73;;;;;;;;;;764655;180;919998;-63
2022/02/05 07:02:01;;;;;;;2.43;1.63;;;;;;;;;;757733;181;917817;-64
2022/02/05 07:04:28;;;;;;;1.80;1.10;;;;;;;;;;771755;178;920292;-63
2022/02/05 07:06:56;;;;;;;2.30;1.00;;;;;;;;;;766783;182;919519;-65
2022/02/05 07:09:21;;;;;;;3.30;1.37;;;;;;;;;;772414;180;919241;-65
2022/02/05 07:11:45;;;;;;;2.55;1.15;;;;;;;;;;768515;181;920065;-64
2022/02/05 07:14:12;;;;;;;2.67;1.57;;;;;;;;;;778225;180;915978;-65
2022/02/05 07:16:40;;;;;;;3.20;1.10;;;;;;;;;;775010;177;918187;-66
2022/02/05 07:20:19;;;;;;;1.70;0.93;;;;;;;;;;772700;180;919628;-64
2022/02/05 07:21:49;;;;;;;2.12;1.20;;;;;;;;;;769909;180;919478;-64
2022/02/05 07:24:21;;;;;;;4.70;1.47;;;;;;;;;;769633;180;916996;-63
2022/02/05 07:29:13;;;;;;;3.10;1.43;;;;;;;;;;774874;178;916416;-64
2022/02/05 07:31:40;;;;;;;2.27;1.40;;;;;;;;;;771993;178;915608;-64
2022/02/05 07:34:04;;;;;;;2.27;1.00;;;;;;;;;;779412;180;915636;-62
2022/02/05 07:36:30;;;;;;;4.03;1.50;;;;;;;;;;771899;181;954210;-64
2022/02/05 07:38:55;;;;;;;2.67;1.30;;;;;;;;;;759882;181;1123884;-64
2022/02/05 07:41:21;;;;;;;4.10;1.20;;;;;;;;;;777249;179;917786;-64
2022/02/05 07:43:47;;;;;;;2.50;1.40;;;;;;;;;;756297;181;919385;-63
2022/02/05 07:46:13;;;;;;;4.13;1.73;;;;;;;;;;771053;180;1019619;-63
2022/02/05 07:48:39;;;;;;;4.67;1.30;;;;;;;;;;772029;179;915814;-62
2022/02/05 07:51:05;;;;;;;2.13;1.03;;;;;;;;;;774711;180;919673;-64
2022/02/05 07:53:30;;;;;;;5.30;1.57;;;;;;;;;;769114;177;919965;-62
2022/02/05 07:55:56;;;;;;;2.20;1.27;;;;;;;;;;771533;180;919261;-63
2022/02/05 07:58:22;;;;;;;4.63;1.93;;;;;;;;;;781227;176;919120;-64
2022/02/05 08:00:48;;;;;;;3.12;1.48;;;;;;;;;;764396;181;919573;-64
2022/02/05 08:03:14;;;;;;;2.07;1.23;;;;;;;;;;760423;179;919814;-64
2022/02/05 08:05:40;;;;;;;7.10;3.70;;;;;;;;;;781623;180;919017;-63
2022/02/05 08:08:10;;;;;;;2.63;1.30;;;;;;;;;;763767;180;930028;-63
2022/02/05 08:10:36;;;;;;;5.20;1.20;;;;;;;;;;768794;181;920089;-62
2022/02/05 08:12:59;;;;;;;6.80;1.58;;;;;;;;;;777277;180;919147;-64
2022/02/05 08:15:26;;;;;;;2.67;1.50;;;;;;;;;;768874;179;1297302;-64
2022/02/05 08:17:49;;;;;;;2.30;1.23;;;;;;;;;;772160;180;920535;-63
2022/02/05 08:20:15;;;;;;;3.90;1.70;;;;;;;;;;771717;180;920189;-64
2022/02/05 08:22:41;;;;;;;2.53;1.30;;;;;;;;;;776289;180;919213;-62
2022/02/05 08:25:07;;;;;;;3.13;1.53;;;;;;;;;;772986;180;919309;-62
2022/02/05 08:27:33;;;;;;;4.03;2.10;;;;;;;;;;771513;180;919589;-64
2022/02/05 08:30:04;;;;;;;6.17;1.90;;;;;;;;;;776877;180;919117;-64
2022/02/05 08:32:26;;;;;;;3.97;2.40;;;;;;;;;;772253;180;918458;-62
2022/02/05 08:34:50;;;;;;;3.60;1.40;;;;;;;;;;770505;181;919050;-62
2022/02/05 08:37:16;;;;;;;9.17;1.73;;;;;;;;;;776911;178;919476;-64
2022/02/05 08:39:42;;;;;;;4.30;1.90;;;;;;;;;;771482;179;919309;-63
2022/02/05 08:42:08;;;;;;;4.07;1.47;;;;;;;;;;769618;181;919374;-62
2022/02/05 08:44:34;;;;;;;3.50;1.53;;;;;;;;;;769937;180;919108;-61
2022/02/05 08:47:00;;;;;;;2.23;1.23;;;;;;;;;;774525;180;919692;-63
2022/02/05 08:49:28;;;;;;;2.57;1.77;;;;;;;;;;773846;180;919171;-63
2022/02/05 08:51:51;;;;;;;3.78;1.40;;;;;;;;;;761460;181;919437;-61
2022/02/05 08:54:17;;;;;;;4.83;1.40;;;;;;;;;;777087;181;918251;-63
2022/02/05 08:56:43;;;;;;;2.80;1.53;;;;;;;;;;772487;181;919568;-62
2022/02/05 08:59:09;;;;;;;7.07;2.07;;;;;;;;;;768225;180;919933;-63
2022/02/05 09:01:46;;;;;;;2.33;1.50;;;;;;;;;;778055;179;924061;-62
2022/02/05 09:04:11;;;;;;;4.97;2.00;;;;;;;;;;772578;180;918662;-63
2022/02/05 09:06:34;;;;;;;4.80;1.53;;;;;;;;;;766113;180;1021727;-62
2022/02/05 09:09:07;;;;;;;8.83;2.23;;;;;;;;;;775206;179;918841;-62
2022/02/05 09:11:34;;;;;;;3.92;2.20;;;;;;;;;;777470;179;917830;-64
2022/02/05 09:14:11;;;;;;;8.03;1.57;;;;;;;;;;772473;179;918978;-64
2022/02/05 09:16:23;;;;;;;3.33;2.07;;;;;;;;;;772216;178;918099;-63
2022/02/05 09:18:49;;;;;;;5.13;1.47;;;;;;;;;;773680;179;918776;-61
2022/02/05 09:21:15;;;;;;;3.90;2.40;;;;;;;;;;779121;177;1073423;-62
2022/02/05 09:23:41;;;;;;;5.20;1.90;;;;;;;;;;775543;178;919588;-62
2022/02/05 09:26:06;;;;;;;4.12;2.08;;;;;;;;;;771325;178;919396;-62
2022/02/05 09:28:32;;;;;;;6.67;2.03;;;;;;;;;;777752;178;919967;-63
2022/02/05 09:31:24;;;;;;;3.17;2.03;;;;;;;;;;762542;180;920063;-63
2022/02/05 09:33:28;;;;;;;13.03;2.33;;;;;;;;;;774641;180;920074;-63
2022/02/05 09:35:54;;;;;;;3.43;1.50;;;;;;;;;;774708;178;918430;-62
2022/02/05 09:38:19;;;;;;;5.23;2.03;;;;;;;;;;758595;180;919658;-62
2022/02/05 09:40:45;;;;;;;8.30;2.40;;;;;;;;;;774196;180;919236;-62
2022/02/05 09:43:11;;;;;;;6.80;2.40;;;;;;;;;;771522;179;915110;-62
2022/02/05 09:45:37;;;;;;;5.47;3.87;;;;;;;;;;767565;179;915275;-62
2022/02/05 09:48:03;;;;;;;12.23;4.10;;;;;;;;;;768176;181;920583;-62
2022/02/05 09:50:30;;;;;;;8.33;3.93;;;;;;;;;;770020;177;912678;-63
2022/02/05 09:53:01;;;;;;;10.07;3.00;;;;;;;;;;770616;181;920186;-62
2022/02/05 09:55:21;;;;;;;7.55;3.03;;;;;;;;;;772370;180;919167;-62
2022/02/05 09:57:47;;;;;;;4.10;2.07;;;;;;;;;;774574;180;919364;-62
2022/02/05 10:00:15;;;;;;;2.93;1.93;;;;;;;;;;774298;180;919910;-63
2022/02/05 10:02:41;;;;;;;3.73;2.30;;;;;;;;;;777625;179;915996;-61
2022/02/05 10:05:10;;;;;;;3.87;2.30;;;;;;;;;;769679;179;1018701;-61
2022/02/05 10:07:34;;;;;;;10.50;2.33;;;;;;;;;;769807;177;916218;-61
2022/02/05 10:10:00;;;;;;;3.23;2.30;;;;;;;;;;767908;181;916331;-62
2022/02/05 10:12:26;;;;;;;4.93;2.20;;;;;;;;;;775163;178;917152;-61
2022/02/05 10:14:52;;;;;;;3.90;2.23;;;;;;;;;;771891;178;917580;-61
2022/02/05 10:17:17;;;;;;;4.93;2.40;;;;;;;;;;779623;180;920704;-61
2022/02/05 10:19:44;;;;;;;4.37;2.37;;;;;;;;;;776774;178;917438;-62
2022/02/05 10:22:10;;;;;;;3.70;2.00;;;;;;;;;;775034;178;945703;-62
2022/02/05 10:24:51;;;;;;;8.18;2.25;;;;;;;;;;775944;180;943845;-61
2022/02/05 10:27:22;;;;;;;7.00;2.37;;;;;;;;;;767148;181;915704;-61
2022/02/05 10:29:48;;;;;;;8.97;2.90;;;;;;;;;;778077;181;919809;-62
2022/02/05 10:32:14;;;;;;;5.90;1.90;;;;;;;;;;775674;180;918978;-61
2022/02/05 10:34:46;;;;;;;7.70;2.30;;;;;;;;;;776238;177;919414;-61
2022/02/05 10:37:19;;;;;;;5.23;2.10;;;;;;;;;;778164;180;919859;-62
2022/02/05 10:45:04;;;;;;;13.40;2.43;;;;;;;;;;772981;180;919287;-62
2022/02/05 10:47:30;;;;;;;3.10;2.30;;;;;;;;;;776101;180;919516;-61
2022/02/05 10:49:57;;;;;;;4.05;2.30;;;;;;;;;;774556;179;918595;-62
2022/02/05 10:52:24;;;;;;;4.43;2.40;;;;;;;;;;780333;180;919009;-62
2022/02/05 10:54:55;;;;;;;6.20;2.43;;;;;;;;;;776917;180;919353;-62
2022/02/05 10:57:23;;;;;;;5.00;2.40;;;;;;;;;;765817;181;919392;-62
2022/02/05 11:00:00;;;;;;;5.17;2.27;;;;;;;;;;773334;180;919487;-62
2022/02/05 11:07:19;;;;;;;3.10;1.83;;;;;;;;;;770447;180;919932;-62
2022/02/05 11:09:47;;;;;;;9.40;2.50;;;;;;;;;;761143;181;942237;-61
2022/02/05 11:15:12;;;;;;;4.83;2.30;;;;;;;;;;777257;179;919919;-63
2022/02/05 11:20:15;;;;;;;4.03;1.80;;;;;;;;;;771786;181;919595;-62
2022/02/05 11:22:42;;;;;;;4.77;2.40;;;;;;;;;;773592;180;918765;-61
2022/02/05 11:25:08;;;;;;;3.58;2.03;;;;;;;;;;770241;180;919376;-63
2022/02/05 11:27:34;;;;;;;4.43;2.50;;;;;;;;;;780298;178;916546;-62
2022/02/05 11:30:05;;;;;;;3.83;2.63;;;;;;;;;;774817;181;914245;-63
2022/02/05 11:32:32;;;;;;;3.20;2.07;;;;;;;;;;776562;176;927886;-63
2022/02/05 11:35:18;;;;;;;3.40;2.23;;;;;;;;;;776471;177;911960;-62
2022/02/05 11:37:45;;;;;;;5.87;2.40;;;;;;;;;;775151;177;915709;-62
2022/02/05 11:40:11;;;;;;;3.47;2.00;;;;;;;;;;780612;180;914881;-62
2022/02/05 11:42:37;;;;;;;3.03;1.97;;;;;;;;;;772956;180;919728;-62
2022/02/05 11:45:18;;;;;;;4.00;2.33;;;;;;;;;;772585;178;920230;-62
2022/02/05 11:47:44;;;;;;;2.80;1.90;;;;;;;;;;766491;181;919176;-62
2022/02/05 11:50:11;;;;;;;3.53;2.00;;;;;;;;;;774278;181;1130996;-62
2022/02/05 11:52:52;;;;;;;3.97;1.83;;;;;;;;;;771088;177;920049;-62
2022/02/05 11:55:18;;;;;;;4.67;2.40;;;;;;;;;;764629;176;919146;-62
2022/02/05 11:58:00;;;;;;;3.50;2.20;;;;;;;;;;764770;180;919516;-61
2022/02/05 12:00:39;;;;;;;3.60;2.70;;;;;;;;;;772572;180;919495;-62
2022/02/05 12:03:11;;;;;;;4.45;2.10;;;;;;;;;;773605;180;920236;-61
2022/02/05 12:05:39;;;;;;;5.23;2.23;;;;;;;;;;773999;180;919123;-61
2022/02/05 12:08:18;;;;;;;4.13;2.07;;;;;;;;;;772624;181;919838;-62
2022/02/05 12:10:48;;;;;;;6.27;2.50;;;;;;;;;;772919;181;919460;-64
2022/02/05 12:13:24;;;;;;;4.53;2.53;;;;;;;;;;770772;181;1021598;-62
2022/02/05 12:15:48;;;;;;;5.00;2.40;;;;;;;;;;766861;178;923883;-62
2022/02/05 12:18:19;;;;;;;4.87;2.30;;;;;;;;;;772107;179;931059;-62
2022/02/05 12:20:46;;;;;;;5.53;2.70;;;;;;;;;;776878;181;918774;-62
2022/02/05 12:23:29;;;;;;;2.77;1.50;;;;;;;;;;774051;179;943238;-62
2022/02/05 12:25:44;;;;;;;5.93;3.50;;;;;;;;;;770240;178;919511;-64
2022/02/05 12:28:15;;;;;;;5.23;3.00;;;;;;;;;;772991;179;919257;-65
2022/02/05 12:30:43;;;;;;;5.83;2.70;;;;;;;;;;782448;179;919216;-63
2022/02/05 12:33:07;;;;;;;4.90;2.22;;;;;;;;;;773989;180;919690;-62
2022/02/05 12:35:33;;;;;;;8.90;2.60;;;;;;;;;;774088;180;919656;-62
2022/02/05 12:37:59;;;;;;;4.07;1.90;;;;;;;;;;778271;179;919393;-63
2022/02/05 12:40:25;;;;;;;7.70;4.53;;;;;;;;;;764382;182;925463;-62
2022/02/05 12:42:51;;;;;;;6.60;2.80;;;;;;;;;;769064;180;920038;-62
2022/02/05 12:45:24;;;;;;;4.77;2.40;;;;;;;;;;774891;180;919006;-61
2022/02/05 12:47:44;;;;;;;4.83;2.40;;;;;;;;;;777693;180;919842;-62
2022/02/05 12:50:14;;;;;;;3.10;1.77;;;;;;;;;;773091;179;919132;-62
2022/02/05 12:52:36;;;;;;;6.70;2.60;;;;;;;;;;770272;180;1123787;-62
2022/02/05 12:55:03;;;;;;;6.83;2.60;;;;;;;;;;778914;180;927341;-61
2022/02/05 12:57:28;;;;;;;5.37;1.93;;;;;;;;;;773546;178;926010;-62
2022/02/05 12:59:54;;;;;;;3.42;1.95;;;;;;;;;;771804;180;932487;-61
2022/02/05 13:02:21;;;;;;;5.77;1.87;;;;;;;;;;779428;179;917673;-62
2022/02/05 13:04:46;;;;;;;4.10;2.23;;;;;;;;;;772164;180;919746;-62
2022/02/05 13:07:11;;;;;;;5.23;2.80;;;;;;;;;;771415;180;918815;-61
2022/02/05 13:09:41;;;;;;;5.77;2.70;;;;;;;;;;769275;180;919183;-61
2022/02/05 13:12:04;;;;;;;5.50;2.73;;;;;;;;;;773095;180;1020882;-62
2022/02/05 13:14:37;;;;;;;3.50;1.87;;;;;;;;;;759676;181;919259;-63
2022/02/05 13:17:04;;;;;;;3.50;2.50;;;;;;;;;;773682;180;1022975;-62
2022/02/05 13:19:42;;;;;;;3.37;1.80;;;;;;;;;;773113;178;919777;-61
2022/02/05 13:27:14;;;;;;;5.37;2.67;;;;;;;;;;769766;180;919386;-61
2022/02/05 13:29:56;;;;;;;6.30;2.80;;;;;;;;;;767815;179;919742;-62
2022/02/05 13:34:41;;;;;;;4.20;2.30;;;;;;;;;;765552;180;918905;-62
2022/02/05 13:37:26;;;;;;;6.33;2.50;;;;;;;;;;772984;178;920845;-64
2022/02/05 13:39:51;;;;;;;5.20;2.70;;;;;;;;;;773601;178;918063;-61
2022/02/05 13:42:12;;;;;;;4.77;2.73;;;;;;;;;;769699;180;915921;-61
2022/02/05 13:44:40;;;;;;;4.07;2.40;;;;;;;;;;768520;179;915673;-61
2022/02/05 13:47:06;;;;;;;4.50;2.33;;;;;;;;;;767748;181;918972;-61
2022/02/05 13:49:32;;;;;;;5.43;3.27;;;;;;;;;;772023;180;919241;-62
2022/02/05 13:52:03;;;;;;;4.00;2.23;;;;;;;;;;770950;181;1020980;-62
2022/02/05 13:54:33;;;;;;;5.03;2.33;;;;;;;;;;776573;179;919978;-62
2022/02/05 13:56:59;;;;;;;7.33;3.50;;;;;;;;;;773117;180;919819;-61
2022/02/05 13:59:24;;;;;;;6.83;3.10;;;;;;;;;;771467;177;919440;-62
2022/02/05 14:01:50;;;;;;;6.73;3.30;;;;;;;;;;779442;180;918964;-61
2022/02/05 14:04:19;;;;;;;9.00;3.30;;;;;;;;;;771220;180;919461;-61
2022/02/05 14:06:48;;;;;;;6.30;2.70;;;;;;;;;;766645;181;919797;-61
2022/02/05 14:09:14;;;;;;;5.43;3.10;;;;;;;;;;771587;179;1122850;-61
2022/02/05 14:11:40;;;;;;;4.03;2.73;;;;;;;;;;779073;177;918131;-61
2022/02/05 14:14:12;;;;;;;5.80;3.20;;;;;;;;;;774080;178;919406;-61
2022/02/05 14:16:31;;;;;;;7.53;2.90;;;;;;;;;;766084;180;918673;-64
2022/02/05 14:19:00;;;;;;;4.97;2.70;;;;;;;;;;778339;179;918935;-61
2022/02/05 14:21:29;;;;;;;4.60;2.97;;;;;;;;;;773072;178;921189;-62
2022/02/05 14:23:56;;;;;;;5.12;2.90;;;;;;;;;;763289;179;919788;-62
2022/02/05 14:26:27;;;;;;;6.43;2.97;;;;;;;;;;765992;180;918937;-60
2022/02/05 14:28:55;;;;;;;5.77;2.90;;;;;;;;;;778719;180;919708;-60
2022/02/05 14:31:23;;;;;;;5.70;2.60;;;;;;;;;;772642;180;919707;-62
2022/02/05 14:34:04;;;;;;;6.77;2.80;;;;;;;;;;773503;180;919085;-61
2022/02/05 14:41:39;;;;;;;4.57;2.80;;;;;;;;;;771837;178;918942;-63
2022/02/05 14:44:03;;;;;;;5.50;3.43;;;;;;;;;;778094;181;917328;-62
2022/02/05 14:46:28;;;;;;;3.80;2.53;;;;;;;;;;770079;180;919564;-62
2022/02/05 14:48:54;;;;;;;9.70;3.43;;;;;;;;;;759845;182;919000;-62
2022/02/05 14:51:20;;;;;;;4.17;2.40;;;;;;;;;;780310;180;918547;-62
2022/02/05 14:53:46;;;;;;;5.70;2.57;;;;;;;;;;773931;178;919446;-62
2022/02/05 14:56:12;;;;;;;4.97;2.50;;;;;;;;;;772913;181;919218;-62
2022/02/05 14:58:38;;;;;;;6.53;3.27;;;;;;;;;;778293;180;918396;-62
2022/02/05 15:01:05;;;;;;;9.03;3.20;;;;;;;;;;772970;180;919262;-62
2022/02/05 15:03:30;;;;;;;8.87;3.47;;;;;;;;;;772221;180;921130;-62
2022/02/05 15:05:59;;;;;;;5.67;2.33;;;;;;;;;;775266;177;966542;-62
2022/02/05 15:08:21;;;;;;;5.13;2.87;;;;;;;;;;773183;180;942308;-62
2022/02/05 15:10:47;;;;;;;4.97;3.23;;;;;;;;;;763641;181;917532;-62
2022/02/05 15:13:13;;;;;;;10.50;3.00;;;;;;;;;;772451;177;913864;-62
2022/02/05 15:15:40;;;;;;;7.60;3.63;;;;;;;;;;780736;180;914890;-62
2022/02/05 15:18:05;;;;;;;7.27;3.73;;;;;;;;;;775633;178;913449;-62
2022/02/05 15:20:31;;;;;;;5.60;2.40;;;;;;;;;;773411;178;915519;-63
2022/02/05 15:22:56;;;;;;;2.83;1.93;;;;;;;;;;777442;179;920049;-65
2022/02/05 15:25:22;;;;;;;10.80;4.43;;;;;;;;;;769440;180;968906;-63
2022/02/05 15:27:48;;;;;;;3.60;2.43;;;;;;;;;;765241;180;918740;-63
2022/02/05 15:30:14;;;;;;;3.00;2.35;;;;;;;;;;776358;180;916595;-62
2022/02/05 15:32:40;;;;;;;8.93;2.77;;;;;;;;;;769048;179;920005;-63
2022/02/05 15:35:07;;;;;;;6.97;3.67;;;;;;;;;;759588;181;919650;-64
2022/02/05 15:37:32;;;;;;;7.90;3.73;;;;;;;;;;770857;180;919504;-63
2022/02/05 15:40:18;;;;;;;6.53;2.62;;;;;;;;;;778108;180;919492;-63
2022/02/05 15:45:02;;;;;;;6.10;2.80;;;;;;;;;;768475;177;919102;-64
2022/02/05 15:47:26;;;;;;;5.63;3.13;;;;;;;;;;771921;180;918699;-63
2022/02/05 15:49:52;;;;;;;5.77;3.70;;;;;;;;;;776548;177;919170;-61
2022/02/05 15:52:18;;;;;;;12.40;3.80;;;;;;;;;;772381;180;1021847;-62
2022/02/05 15:54:44;;;;;;;7.00;3.27;;;;;;;;;;773764;178;918756;-62
2022/02/05 15:57:22;;;;;;;6.83;3.20;;;;;;;;;;777967;178;918962;-64
2022/02/05 15:59:58;;;;;;;6.87;3.85;;;;;;;;;;772987;180;920476;-64
2022/02/05 16:02:20;;;;;;;8.00;3.30;;;;;;;;;;767365;179;919549;-63
2022/02/05 16:04:46;;;;;;;3.90;2.80;;;;;;;;;;774117;180;919497;-62
2022/02/05 16:07:12;;;;;;;15.23;4.40;;;;;;;;;;774350;178;919967;-61
2022/02/05 16:09:38;;;;;;;5.93;3.03;;;;;;;;;;772392;179;955403;-63
2022/02/05 16:12:04;;;;;;;9.50;4.40;;;;;;;;;;771192;179;919381;-63
2022/02/05 16:14:30;;;;;;;7.47;4.07;;;;;;;;;;772422;178;1020829;-63
2022/02/05 16:16:56;;;;;;;8.87;4.87;;;;;;;;;;780944;179;927755;-63
2022/02/05 16:19:22;;;;;;;7.60;3.63;;;;;;;;;;776941;177;919759;-63
2022/02/05 16:21:48;;;;;;;7.97;4.80;;;;;;;;;;773516;180;919271;-61